createdAt,value
2017-01-07T00:02:10.738Z,0
2017-01-07T00:04:23.168Z,0
2017-01-07T00:06:35.743Z,0
2017-01-07T00:08:48.326Z,0
2017-01-07T00:11:00.762Z,0
2017-01-07T00:13:08.143Z,0
2017-01-07T00:15:20.514Z,0
2017-01-07T00:17:33.876Z,0
2017-01-07T00:19:46.203Z,0
2017-01-07T00:21:58.561Z,0
2017-01-07T00:24:11.082Z,0
2017-01-07T00:26:23.581Z,0
2017-01-07T00:28:36.053Z,0
2017-01-07T00:30:48.525Z,0
2017-01-07T00:33:00.881Z,0
2017-01-07T00:35:13.150Z,0
2017-01-07T00:37:25.767Z,0
2017-01-07T00:39:28.134Z,0
2017-01-07T00:41:40.922Z,0
2017-01-07T00:43:53.393Z,0
2017-01-07T00:46:05.747Z,0
2017-01-07T00:48:18.157Z,0
2017-01-07T00:50:30.605Z,0
2017-01-07T00:52:42.857Z,0
2017-01-07T00:54:50.354Z,0
2017-01-07T00:57:02.688Z,0
2017-01-07T00:59:14.946Z,0
2017-01-07T01:01:22.372Z,0
2017-01-07T01:03:34.791Z,0
2017-01-07T01:05:47.100Z,0
2017-01-07T01:07:59.406Z,0
2017-01-07T01:10:11.820Z,0
2017-01-07T01:12:24.270Z,0
2017-01-07T01:14:36.438Z,0
2017-01-07T01:16:49.838Z,0
2017-01-07T01:19:02.120Z,0
2017-01-07T01:21:14.399Z,0
2017-01-07T01:23:26.860Z,0
2017-01-07T01:25:39.303Z,0
2017-01-07T01:27:51.629Z,0
2017-01-07T01:30:03.879Z,0
2017-01-07T01:32:16.178Z,0
2017-01-07T01:34:18.656Z,0
2017-01-07T01:36:25.984Z,0
2017-01-07T01:38:38.374Z,0
2017-01-07T01:40:50.589Z,0
2017-01-07T01:42:57.888Z,0
2017-01-07T01:45:10.205Z,0
2017-01-07T01:47:22.564Z,0
2017-01-07T01:49:34.920Z,0
2017-01-07T01:51:47.933Z,0
2017-01-07T01:54:00.328Z,0
2017-01-07T01:56:07.640Z,0
2017-01-07T01:58:20.044Z,0
2017-01-07T02:00:32.482Z,0
2017-01-07T02:02:44.876Z,0
2017-01-07T02:04:57.335Z,0
2017-01-07T02:07:09.619Z,0
2017-01-07T02:09:21.951Z,0
2017-01-07T02:11:34.327Z,0
2017-01-07T02:13:46.552Z,0
2017-01-07T02:15:58.896Z,0
2017-01-07T02:18:01.309Z,0
2017-01-07T02:20:09.560Z,0
2017-01-07T02:22:21.953Z,0
2017-01-07T02:24:34.441Z,0
2017-01-07T02:26:47.291Z,0
2017-01-07T02:28:59.705Z,0
2017-01-07T02:31:12.015Z,0
2017-01-07T02:33:19.295Z,0
2017-01-07T02:35:31.737Z,0
2017-01-07T02:37:43.991Z,0
2017-01-07T02:39:56.410Z,0
2017-01-07T02:42:09.813Z,0
2017-01-07T02:44:23.294Z,0
2017-01-07T02:46:35.752Z,0
2017-01-07T02:48:47.963Z,0
2017-01-07T02:51:00.181Z,0
2017-01-07T02:53:12.646Z,0
2017-01-07T02:55:25.026Z,0
2017-01-07T02:57:32.502Z,0
2017-01-07T02:59:45.351Z,0
2017-01-07T03:01:57.864Z,0
2017-01-07T03:04:10.322Z,0
2017-01-07T03:06:22.901Z,0
2017-01-07T03:08:35.236Z,0
2017-01-07T03:10:37.686Z,0
2017-01-07T03:12:49.985Z,0
2017-01-07T03:15:02.413Z,0
2017-01-07T03:17:14.941Z,0
2017-01-07T03:19:27.480Z,0
2017-01-07T03:21:34.806Z,0
2017-01-07T03:23:47.144Z,0
2017-01-07T03:25:59.406Z,0
2017-01-07T03:28:11.761Z,0
2017-01-07T03:30:24.037Z,0
2017-01-07T03:32:36.296Z,0
2017-01-07T03:34:48.779Z,0
2017-01-07T03:37:01.162Z,0
2017-01-07T03:39:13.568Z,0
2017-01-07T03:41:20.765Z,0
2017-01-07T03:43:33.204Z,0
2017-01-07T03:45:40.512Z,0
2017-01-07T03:47:47.932Z,0
2017-01-07T03:50:00.306Z,0
2017-01-07T03:52:12.719Z,0
2017-01-07T03:54:25.038Z,0
2017-01-07T03:56:37.530Z,0
2017-01-07T03:58:49.860Z,0
2017-01-07T04:01:02.114Z,0
2017-01-07T04:03:14.419Z,0
2017-01-07T04:05:21.899Z,0
2017-01-07T04:07:34.284Z,0
2017-01-07T04:09:47.216Z,0
2017-01-07T04:11:59.820Z,0
2017-01-07T04:14:12.149Z,0
2017-01-07T04:16:24.580Z,0
2017-01-07T04:18:36.887Z,0
2017-01-07T04:20:49.168Z,0
2017-01-07T04:23:01.717Z,0
2017-01-07T04:25:14.012Z,0
2017-01-07T04:27:26.471Z,0
2017-01-07T04:29:38.725Z,0
2017-01-07T04:31:51.059Z,0
2017-01-07T04:34:03.603Z,0
2017-01-07T04:36:15.843Z,0
2017-01-07T04:38:23.198Z,0
2017-01-07T04:40:35.630Z,0
2017-01-07T04:42:48.131Z,0
2017-01-07T04:45:01.332Z,0
2017-01-07T04:47:14.044Z,0
2017-01-07T04:49:21.553Z,0
2017-01-07T04:51:33.899Z,0
2017-01-07T04:53:46.260Z,0
2017-01-07T04:55:53.782Z,0
2017-01-07T04:58:06.238Z,0
2017-01-07T05:00:18.604Z,0
2017-01-07T05:02:31.073Z,0
2017-01-07T05:04:43.404Z,0
2017-01-07T05:06:55.771Z,0
2017-01-07T05:09:08.059Z,0
2017-01-07T05:11:20.518Z,0
2017-01-07T05:13:33.047Z,0
2017-01-07T05:15:45.256Z,0
2017-01-07T05:17:57.625Z,0
2017-01-07T05:20:10.766Z,0
2017-01-07T05:22:23.209Z,0
2017-01-07T05:24:35.648Z,0
2017-01-07T05:26:47.986Z,0
2017-01-07T05:29:00.270Z,0
2017-01-07T05:31:12.691Z,0
2017-01-07T05:33:25.016Z,0
2017-01-07T05:35:37.499Z,0
2017-01-07T05:37:49.958Z,0
2017-01-07T05:40:02.442Z,0
2017-01-07T05:42:14.686Z,0
2017-01-07T05:44:27.167Z,0
2017-01-07T05:46:39.495Z,0
2017-01-07T05:48:47.041Z,0
2017-01-07T05:50:59.415Z,0
2017-01-07T05:53:11.696Z,0
2017-01-07T05:55:24.771Z,0
2017-01-07T05:57:37.507Z,0
2017-01-07T05:59:44.891Z,0
2017-01-07T06:01:52.656Z,0
2017-01-07T06:04:05.034Z,0
2017-01-07T06:06:17.534Z,0
2017-01-07T06:08:29.918Z,0
2017-01-07T06:10:42.290Z,0
2017-01-07T06:12:49.805Z,0
2017-01-07T06:14:52.215Z,0
2017-01-07T06:17:04.624Z,0
2017-01-07T06:19:16.975Z,0
2017-01-07T06:21:29.416Z,0
2017-01-07T06:23:41.903Z,0
2017-01-07T06:25:49.151Z,0
2017-01-07T06:28:01.491Z,0
2017-01-07T06:30:14.045Z,0
2017-01-07T06:32:27.016Z,0
2017-01-07T06:34:34.509Z,0
2017-01-07T06:36:46.963Z,0
2017-01-07T06:38:59.315Z,0
2017-01-07T06:41:06.757Z,0
2017-01-07T06:43:18.996Z,0
2017-01-07T06:45:31.505Z,0
2017-01-07T06:47:44.097Z,0
2017-01-07T06:49:56.496Z,0
2017-01-07T06:52:09.071Z,0
2017-01-07T06:54:21.521Z,5
2017-01-07T06:56:33.761Z,5
2017-01-07T06:58:47.139Z,5
2017-01-07T07:00:59.483Z,10
2017-01-07T07:03:11.928Z,15
2017-01-07T07:05:24.424Z,15
2017-01-07T07:07:37.555Z,15
2017-01-07T07:09:49.749Z,20
2017-01-07T07:12:02.098Z,20
2017-01-07T07:14:14.524Z,25
2017-01-07T07:16:26.781Z,25
2017-01-07T07:18:34.387Z,30
2017-01-07T07:20:46.690Z,35
2017-01-07T07:22:59.051Z,40
2017-01-07T07:25:11.387Z,45
2017-01-07T07:27:23.831Z,50
2017-01-07T07:29:36.167Z,55
2017-01-07T07:31:48.506Z,60
2017-01-07T07:34:00.934Z,65
2017-01-07T07:36:14.289Z,70
2017-01-07T07:38:26.742Z,80
2017-01-07T07:40:34.180Z,85
2017-01-07T07:42:47.026Z,85
2017-01-07T07:45:00.073Z,90
2017-01-07T07:47:12.434Z,95
2017-01-07T07:49:24.666Z,105
2017-01-07T07:51:37.174Z,115
2017-01-07T07:53:44.529Z,130
2017-01-07T07:55:57.050Z,130
2017-01-07T07:58:04.582Z,130
2017-01-07T08:00:16.985Z,135
2017-01-07T08:02:29.245Z,145
2017-01-07T08:04:41.481Z,150
2017-01-07T08:06:48.870Z,150
2017-01-07T08:09:01.144Z,170
2017-01-07T08:11:03.466Z,185
2017-01-07T08:13:16.056Z,200
2017-01-07T08:15:28.522Z,200
2017-01-07T08:17:36.165Z,200
2017-01-07T08:19:49.167Z,200
2017-01-07T08:22:01.533Z,200
2017-01-07T08:24:14.197Z,200
2017-01-07T08:26:26.545Z,205
2017-01-07T08:28:33.875Z,200
2017-01-07T08:30:46.279Z,195
2017-01-07T08:32:58.609Z,205
2017-01-07T08:35:06.189Z,205
2017-01-07T08:37:18.691Z,210
2017-01-07T08:39:31.248Z,200
2017-01-07T08:41:43.767Z,190
2017-01-07T08:43:51.425Z,180
2017-01-07T08:46:03.921Z,190
2017-01-07T08:48:16.277Z,190
2017-01-07T08:50:23.823Z,185
2017-01-07T08:52:36.582Z,190
2017-01-07T08:54:49.214Z,210
2017-01-07T08:57:01.602Z,245
2017-01-07T08:59:13.867Z,270
2017-01-07T09:01:26.377Z,280
2017-01-07T09:03:38.871Z,300
2017-01-07T09:05:51.199Z,305
2017-01-07T09:08:03.564Z,310
2017-01-07T09:10:16.190Z,335
2017-01-07T09:12:28.594Z,340
2017-01-07T09:14:35.995Z,345
2017-01-07T09:16:48.737Z,350
2017-01-07T09:19:01.104Z,365
2017-01-07T09:21:13.306Z,355
2017-01-07T09:23:25.561Z,380
2017-01-07T09:25:37.809Z,385
2017-01-07T09:27:45.323Z,400
2017-01-07T09:29:52.918Z,425
2017-01-07T09:32:00.108Z,450
2017-01-07T09:34:12.392Z,450
2017-01-07T09:36:24.631Z,445
2017-01-07T09:38:37.126Z,440
2017-01-07T09:40:49.713Z,480
2017-01-07T09:43:02.075Z,460
2017-01-07T09:45:09.441Z,480
2017-01-07T09:47:21.713Z,480
2017-01-07T09:49:33.897Z,460
2017-01-07T09:51:46.181Z,465
2017-01-07T09:53:58.413Z,470
2017-01-07T09:56:10.921Z,470
2017-01-07T09:58:23.334Z,465
2017-01-07T10:00:35.562Z,445
2017-01-07T10:02:48.315Z,440
2017-01-07T10:04:55.719Z,455
2017-01-07T10:07:08.123Z,465
2017-01-07T10:09:20.400Z,470
2017-01-07T10:11:32.839Z,455
2017-01-07T10:13:40.258Z,445
2017-01-07T10:15:51.487Z,465
2017-01-07T10:18:04.157Z,480
2017-01-07T10:20:16.637Z,540
2017-01-07T10:22:29.486Z,555
2017-01-07T10:24:44.016Z,565
2017-01-07T10:27:01.091Z,580
2017-01-07T10:29:14.076Z,590
2017-01-07T10:31:28.328Z,580
2017-01-07T10:33:42.579Z,595
2017-01-07T10:35:55.157Z,545
2017-01-07T10:38:08.267Z,495
2017-01-07T10:40:20.776Z,540
2017-01-07T10:42:35.329Z,665
2017-01-07T10:44:49.949Z,750
2017-01-07T10:46:57.125Z,730
2017-01-07T10:49:11.650Z,665
2017-01-07T10:51:23.898Z,620
2017-01-07T10:53:38.124Z,625
2017-01-07T10:55:50.545Z,670
2017-01-07T10:58:03.005Z,590
2017-01-07T11:00:12.460Z,530
2017-01-07T11:02:25.068Z,565
2017-01-07T11:04:37.397Z,640
2017-01-07T11:06:50.274Z,595
2017-01-07T11:09:04.376Z,555
2017-01-07T11:11:13.934Z,495
2017-01-07T11:13:26.532Z,520
2017-01-07T11:15:33.876Z,560
2017-01-07T11:17:47.896Z,555
2017-01-07T11:20:01.773Z,560
2017-01-07T11:22:18.069Z,605
2017-01-07T11:24:30.881Z,650
2017-01-07T11:26:38.552Z,675
2017-01-07T11:28:51.174Z,685
2017-01-07T11:31:03.628Z,695
2017-01-07T11:33:16.384Z,675
2017-01-07T11:35:28.799Z,630
2017-01-07T11:37:41.267Z,605
2017-01-07T11:39:48.766Z,575
2017-01-07T11:42:01.141Z,535
2017-01-07T11:44:14.674Z,510
2017-01-07T11:46:37.193Z,520
2017-01-07T11:48:51.458Z,560
2017-01-07T11:51:05.448Z,560
2017-01-07T11:53:19.094Z,575
2017-01-07T11:55:31.580Z,565
2017-01-07T11:57:48.258Z,550
2017-01-07T12:00:23.819Z,550
2017-01-07T12:03:12.804Z,530
2017-01-07T12:06:01.275Z,515
2017-01-07T12:08:50.391Z,540
2017-01-07T12:11:42.871Z,575
2017-01-07T12:14:36.597Z,580
2017-01-07T12:17:26.105Z,560
2017-01-07T12:20:12.955Z,525
2017-01-07T12:22:54.178Z,440
2017-01-07T12:25:34.110Z,370
2017-01-07T12:28:31.819Z,410
2017-01-07T12:31:24.346Z,520
2017-01-07T12:34:11.990Z,525
2017-01-07T12:36:35.475Z,550
2017-01-07T12:39:00.257Z,575
2017-01-07T12:41:07.720Z,590
2017-01-07T12:43:53.881Z,665
2017-01-07T12:46:23.911Z,690
2017-01-07T12:48:58.610Z,635
2017-01-07T12:51:31.927Z,605
2017-01-07T12:53:47.245Z,535
2017-01-07T12:56:06.276Z,525
2017-01-07T12:58:17.409Z,560
2017-01-07T13:00:32.228Z,565
2017-01-07T13:02:47.394Z,555
2017-01-07T13:04:59.722Z,525
2017-01-07T13:07:13.423Z,495
2017-01-07T13:09:29.848Z,470
2017-01-07T13:11:49.848Z,450
2017-01-07T13:14:06.074Z,435
2017-01-07T13:16:18.624Z,420
2017-01-07T13:18:29.869Z,410
2017-01-07T13:24:09.387Z,415
2017-01-07T13:26:44.554Z,430
2017-01-07T13:29:18.390Z,435
2017-01-07T13:31:48.920Z,425
2017-01-07T13:34:16.209Z,390
2017-01-07T13:36:43.485Z,370
2017-01-07T13:39:19.160Z,380
2017-01-07T13:41:55.455Z,370
2017-01-07T13:44:19.785Z,340
2017-01-07T13:47:01.722Z,285
2017-01-07T13:49:14.515Z,275
2017-01-07T13:51:27.717Z,270
2017-01-07T13:53:43.673Z,250
2017-01-07T13:55:53.421Z,235
2017-01-07T13:57:57.359Z,225
2017-01-07T14:00:09.788Z,220
2017-01-07T14:02:22.018Z,210
2017-01-07T14:04:34.286Z,215
2017-01-07T14:06:51.063Z,215
2017-01-07T14:09:06.159Z,205
2017-01-07T14:11:27.311Z,190
2017-01-07T14:13:54.269Z,180
2017-01-07T14:16:32.426Z,190
2017-01-07T14:18:46.495Z,200
2017-01-07T14:21:30.681Z,200
2017-01-07T14:24:18.921Z,205
2017-01-07T14:27:05.533Z,200
2017-01-07T14:29:55.079Z,200
2017-01-07T14:32:21.003Z,180
2017-01-07T14:35:00.679Z,190
2017-01-07T14:37:48.206Z,205
2017-01-07T14:40:33.594Z,185
2017-01-07T14:43:19.775Z,175
2017-01-07T14:46:06.677Z,165
2017-01-07T14:48:54.489Z,145
2017-01-07T14:51:33.517Z,130
2017-01-07T14:54:18.060Z,125
2017-01-07T14:57:02.319Z,110
2017-01-07T14:59:42.507Z,95
2017-01-07T15:01:59.849Z,100
2017-01-07T15:04:13.112Z,100
2017-01-07T15:06:25.642Z,90
2017-01-07T15:08:47.120Z,85
2017-01-07T15:11:06.311Z,80
2017-01-07T15:13:30.032Z,70
2017-01-07T15:15:41.521Z,65
2017-01-07T15:18:04.590Z,55
2017-01-07T15:20:23.605Z,45
2017-01-07T15:22:49.759Z,35
2017-01-07T15:25:18.945Z,30
2017-01-07T15:27:40.998Z,25
2017-01-07T15:30:04.409Z,25
2017-01-07T15:32:21.440Z,20
2017-01-07T15:34:53.655Z,20
2017-01-07T15:37:23.896Z,15
2017-01-07T15:39:31.258Z,10
2017-01-07T15:41:38.807Z,10
2017-01-07T15:43:51.190Z,5
2017-01-07T15:45:59.736Z,5
2017-01-07T15:48:14.338Z,5
2017-01-07T15:50:26.927Z,0
2017-01-07T15:52:39.206Z,0
2017-01-07T15:54:51.583Z,0
2017-01-07T15:57:02.005Z,0
2017-01-07T15:59:15.682Z,0
2017-01-07T16:01:23.947Z,0
2017-01-07T16:03:44.700Z,0
2017-01-07T16:05:57.650Z,0
2017-01-07T16:08:12.450Z,0
2017-01-07T16:10:26.076Z,0
2017-01-07T16:12:39.387Z,0
2017-01-07T16:14:51.757Z,0
2017-01-07T16:17:09.908Z,0
2017-01-07T16:19:31.656Z,0
2017-01-07T16:21:45.550Z,0
2017-01-07T16:23:59.412Z,0
2017-01-07T16:26:12.874Z,0
2017-01-07T16:28:20.168Z,0
2017-01-07T16:30:32.899Z,0
2017-01-07T16:32:46.222Z,0
2017-01-07T16:34:59.728Z,0
2017-01-07T16:37:07.508Z,0
2017-01-07T16:39:20.363Z,0
2017-01-07T16:41:28.259Z,0
2017-01-07T16:43:41.115Z,0
2017-01-07T16:45:54.173Z,0
2017-01-07T16:48:08.177Z,0
2017-01-07T16:50:15.781Z,0
2017-01-07T16:52:28.833Z,0
2017-01-07T16:54:41.399Z,0
2017-01-07T16:56:54.887Z,0
2017-01-07T16:59:07.777Z,0
2017-01-07T17:01:16.199Z,0
2017-01-07T17:03:30.577Z,0
2017-01-07T17:05:45.057Z,0
2017-01-07T17:07:54.805Z,0
2017-01-07T17:10:07.429Z,0
2017-01-07T17:12:21.806Z,0
2017-01-07T17:14:34.826Z,0
2017-01-07T17:16:47.375Z,0
2017-01-07T17:19:00.330Z,0
2017-01-07T17:21:12.896Z,0
2017-01-07T17:23:21.100Z,0
2017-01-07T17:25:36.041Z,0
2017-01-07T17:27:50.712Z,0
2017-01-07T17:30:06.546Z,0
2017-01-07T17:32:13.917Z,0
2017-01-07T17:34:21.625Z,0
2017-01-07T17:36:34.305Z,0
2017-01-07T17:38:43.245Z,0
2017-01-07T17:41:01.026Z,0
2017-01-07T17:43:14.074Z,0
2017-01-07T17:45:31.801Z,0
2017-01-07T17:47:44.192Z,0
2017-01-07T17:49:54.128Z,0
2017-01-07T17:52:08.141Z,0
2017-01-07T17:54:22.990Z,0
2017-01-07T17:56:37.830Z,0
2017-01-07T17:58:51.742Z,0
2017-01-07T18:01:04.817Z,0
2017-01-07T18:03:17.844Z,0
2017-01-07T18:05:31.116Z,0
2017-01-07T18:07:43.880Z,0
2017-01-07T18:09:57.295Z,0
2017-01-07T18:12:09.736Z,0
2017-01-07T18:14:22.150Z,0
2017-01-07T18:16:36.602Z,0
2017-01-07T18:18:52.393Z,0
2017-01-07T18:21:01.084Z,0
2017-01-07T18:23:17.547Z,0
2017-01-07T18:25:31.788Z,0
2017-01-07T18:27:47.090Z,0
2017-01-07T18:29:56.994Z,0
2017-01-07T18:32:06.466Z,0
2017-01-07T18:34:22.851Z,0
2017-01-07T18:36:35.710Z,0
2017-01-07T18:38:51.260Z,0
2017-01-07T18:41:06.444Z,0
2017-01-07T18:43:18.559Z,0
2017-01-07T18:45:31.754Z,0
2017-01-07T18:47:52.574Z,0
2017-01-07T18:50:06.110Z,0
2017-01-07T18:52:21.191Z,0
2017-01-07T18:54:36.436Z,0
2017-01-07T18:56:51.541Z,0
2017-01-07T18:59:12.139Z,0
2017-01-07T19:01:21.233Z,0
2017-01-07T19:03:36.735Z,0
2017-01-07T19:05:52.126Z,0
2017-01-07T19:08:09.042Z,0
2017-01-07T19:10:23.481Z,0
2017-01-07T19:12:38.457Z,0
2017-01-07T19:14:47.483Z,0
2017-01-07T19:17:16.613Z,0
2017-01-07T19:19:30.060Z,0
2017-01-07T19:22:02.285Z,0
2017-01-07T19:24:24.761Z,0
2017-01-07T19:26:40.572Z,0
2017-01-07T19:28:55.059Z,0
2017-01-07T19:31:12.095Z,0
2017-01-07T19:33:28.937Z,0
2017-01-07T19:35:41.377Z,0
2017-01-07T19:37:55.873Z,0
2017-01-07T19:40:10.029Z,0
2017-01-07T19:42:25.111Z,0
2017-01-07T19:44:39.907Z,0
2017-01-07T19:46:55.874Z,0
2017-01-07T19:49:08.562Z,0
2017-01-07T19:51:30.262Z,0
2017-01-07T19:53:38.565Z,0
2017-01-07T19:55:51.307Z,0
2017-01-07T19:58:06.160Z,0
2017-01-07T20:00:20.999Z,0
2017-01-07T20:02:35.762Z,0
2017-01-07T20:04:50.843Z,0
2017-01-07T20:07:04.622Z,0
2017-01-07T20:09:19.355Z,0
2017-01-07T20:11:31.992Z,0
2017-01-07T20:13:45.598Z,0
2017-01-07T20:15:54.450Z,0
2017-01-07T20:18:09.619Z,0
2017-01-07T20:20:23.920Z,0
2017-01-07T20:22:36.680Z,0
2017-01-07T20:24:46.958Z,0
2017-01-07T20:27:03.591Z,0
2017-01-07T20:29:19.772Z,0
2017-01-07T20:31:32.809Z,0
2017-01-07T20:33:47.813Z,0
2017-01-07T20:36:06.666Z,0
2017-01-07T20:38:22.004Z,0
2017-01-07T20:40:36.223Z,0
2017-01-07T20:42:45.509Z,0
2017-01-07T20:45:02.199Z,0
2017-01-07T20:47:16.267Z,0
2017-01-07T20:49:32.437Z,0
2017-01-07T20:51:41.642Z,0
2017-01-07T20:53:56.841Z,0
2017-01-07T20:56:11.078Z,0
2017-01-07T20:58:26.089Z,0
2017-01-07T21:00:42.045Z,0
2017-01-07T21:02:57.025Z,0
2017-01-07T21:05:10.714Z,0
2017-01-07T21:07:21.667Z,0
2017-01-07T21:09:36.484Z,0
2017-01-07T21:11:52.303Z,0
2017-01-07T21:14:07.948Z,0
2017-01-07T21:16:15.692Z,0
2017-01-07T21:18:30.055Z,0
2017-01-07T21:20:46.313Z,0
2017-01-07T21:22:59.381Z,0
2017-01-07T21:25:14.779Z,0
2017-01-07T21:27:22.661Z,0
2017-01-07T21:29:37.123Z,0
2017-01-07T21:31:52.803Z,0
2017-01-07T21:34:07.547Z,0
2017-01-07T21:36:31.831Z,0
2017-01-07T21:38:44.705Z,0
2017-01-07T21:40:58.063Z,0
2017-01-07T21:43:08.608Z,0
2017-01-07T21:45:27.183Z,0
2017-01-07T21:47:42.731Z,0
2017-01-07T21:49:59.280Z,0
2017-01-07T21:52:09.512Z,0
2017-01-07T21:54:27.633Z,0
2017-01-07T21:56:39.438Z,0
2017-01-07T21:58:59.217Z,0
2017-01-07T22:01:09.863Z,0
2017-01-07T22:03:24.378Z,0
2017-01-07T22:05:38.569Z,0
2017-01-07T22:07:52.840Z,0
2017-01-07T22:10:08.605Z,0
2017-01-07T22:12:25.087Z,0
2017-01-07T22:14:40.298Z,0
2017-01-07T22:16:56.245Z,0
2017-01-07T22:19:09.689Z,0
2017-01-07T22:21:31.566Z,0
2017-01-07T22:23:45.322Z,0
2017-01-07T22:25:59.990Z,0
2017-01-07T22:28:15.157Z,0
2017-01-07T22:30:30.311Z,0
2017-01-07T22:32:44.412Z,0
2017-01-07T22:35:00.006Z,0
2017-01-07T22:37:10.158Z,0
2017-01-07T22:39:25.686Z,0
2017-01-07T22:41:51.032Z,0
2017-01-07T22:44:05.648Z,0
2017-01-07T22:46:26.207Z,0
2017-01-07T22:48:40.576Z,0
2017-01-07T22:50:56.735Z,0
2017-01-07T22:53:11.983Z,0
2017-01-07T22:55:25.651Z,0
2017-01-07T22:57:42.385Z,0
2017-01-07T22:59:57.866Z,0
2017-01-07T23:02:06.431Z,0
2017-01-07T23:04:27.041Z,0
2017-01-07T23:06:44.649Z,0
2017-01-07T23:09:01.478Z,0
2017-01-07T23:11:15.706Z,0
2017-01-07T23:13:30.941Z,0
2017-01-07T23:15:46.016Z,0
2017-01-07T23:18:03.434Z,0
2017-01-07T23:20:21.226Z,0
2017-01-07T23:22:39.875Z,0
2017-01-07T23:24:47.351Z,0
2017-01-07T23:27:01.019Z,0
2017-01-07T23:29:14.822Z,0
2017-01-07T23:31:27.741Z,0
2017-01-07T23:33:46.825Z,0
2017-01-07T23:36:06.907Z,0
2017-01-07T23:38:25.630Z,0
2017-01-07T23:40:43.493Z,0
2017-01-07T23:42:57.170Z,0
2017-01-07T23:45:12.386Z,0
2017-01-07T23:47:15.426Z,0
2017-01-07T23:49:22.868Z,0
2017-01-07T23:51:30.211Z,0
2017-01-07T23:53:43.334Z,0
2017-01-07T23:55:55.830Z,0
2017-01-07T23:58:08.159Z,0
